createdAt,value
2022-08-26T00:00:54.583Z,8.38
2022-08-26T00:03:24.468Z,8.07
2022-08-26T00:05:53.084Z,8.38
2022-08-26T00:08:22.266Z,7.80
2022-08-26T00:10:51.554Z,8.73
2022-08-26T00:13:20.375Z,8.40
2022-08-26T00:15:51.166Z,8.77
2022-08-26T00:18:22.165Z,8.75
2022-08-26T00:20:51.662Z,9.25
2022-08-26T00:23:20.464Z,8.57
2022-08-26T00:25:53.866Z,8.90
2022-08-26T00:28:22.686Z,7.20
2022-08-26T00:30:52.614Z,9.25
2022-08-26T00:33:23.024Z,8.90
2022-08-26T00:35:51.690Z,8.75
2022-08-26T00:38:22.195Z,8.32
2022-08-26T00:40:53.944Z,8.77
2022-08-26T00:46:00.305Z,9.00
2022-08-26T00:48:32.145Z,8.73
2022-08-26T00:51:20.943Z,8.13
2022-08-26T00:53:52.125Z,8.88
2022-08-26T00:56:35.810Z,8.68
2022-08-26T00:59:06.824Z,9.18
2022-08-26T01:01:36.251Z,8.83
2022-08-26T01:04:04.986Z,9.15
2022-08-26T01:06:34.542Z,8.75
2022-08-26T01:09:03.764Z,8.50
2022-08-26T01:11:32.888Z,8.75
2022-08-26T01:14:02.828Z,7.82
2022-08-26T01:16:33.276Z,9.60
2022-08-26T01:19:04.374Z,8.57
2022-08-26T01:25:56.545Z,8.60
2022-08-26T01:28:27.081Z,8.35
2022-08-26T01:30:56.781Z,8.75
2022-08-26T01:33:40.001Z,9.10
2022-08-26T01:36:11.305Z,10.50
2022-08-26T01:38:40.839Z,8.18
2022-08-26T01:41:14.158Z,8.80
2022-08-26T01:43:49.919Z,9.38
2022-08-26T01:46:19.089Z,9.40
2022-08-26T01:48:48.405Z,9.77
2022-08-26T01:51:25.176Z,8.85
2022-08-26T01:53:53.778Z,8.60
2022-08-26T01:56:23.905Z,9.43
2022-08-26T01:58:54.153Z,8.85
2022-08-26T02:01:24.322Z,9.95
2022-08-26T02:04:17.007Z,9.10
2022-08-26T02:06:46.675Z,9.35
2022-08-26T02:09:16.454Z,8.43
2022-08-26T02:11:45.407Z,9.80
2022-08-26T02:14:35.152Z,9.48
2022-08-26T02:17:13.217Z,9.98
2022-08-26T02:19:43.611Z,9.77
2022-08-26T02:22:16.122Z,9.65
2022-08-26T02:24:52.889Z,9.18
2022-08-26T02:27:23.930Z,9.23
2022-08-26T02:29:55.527Z,10.52
2022-08-26T02:32:24.523Z,10.00
2022-08-26T02:34:53.271Z,11.05
2022-08-26T02:37:23.006Z,9.63
2022-08-26T02:39:51.682Z,9.95
2022-08-26T02:42:20.831Z,10.20
2022-08-26T02:44:50.214Z,9.93
2022-08-26T02:47:18.998Z,8.38
2022-08-26T02:49:47.811Z,11.35
2022-08-26T02:52:17.426Z,10.70
2022-08-26T02:54:46.953Z,9.35
2022-08-26T02:59:47.856Z,8.27
2022-08-26T03:02:17.358Z,9.63
2022-08-26T03:04:57.358Z,9.60
2022-08-26T03:07:29.584Z,9.23
2022-08-26T03:09:59.102Z,9.20
2022-08-26T03:12:28.043Z,8.30
2022-08-26T03:14:56.500Z,8.40
2022-08-26T03:17:25.225Z,8.55
2022-08-26T03:19:57.269Z,8.50
2022-08-26T03:22:27.099Z,9.90
2022-08-26T03:24:56.084Z,9.85
2022-08-26T03:27:24.488Z,8.70
2022-08-26T03:30:11.811Z,9.90
2022-08-26T03:32:41.494Z,11.00
2022-08-26T03:35:10.668Z,9.63
2022-08-26T03:37:39.337Z,8.95
2022-08-26T03:40:10.369Z,8.50
2022-08-26T03:42:39.997Z,9.52
2022-08-26T03:45:10.654Z,10.77
2022-08-26T03:47:39.876Z,9.03
2022-08-26T03:50:09.806Z,10.95
2022-08-26T03:52:43.021Z,9.55
2022-08-26T03:55:13.022Z,9.95
2022-08-26T03:57:42.795Z,9.45
2022-08-26T04:00:14.909Z,9.63
2022-08-26T04:02:48.827Z,9.65
2022-08-26T04:05:18.353Z,10.05
2022-08-26T04:07:47.417Z,10.00
2022-08-26T04:10:20.116Z,9.10
2022-08-26T04:12:49.587Z,8.73
2022-08-26T04:15:18.668Z,8.95
2022-08-26T04:17:47.686Z,8.40
2022-08-26T04:20:18.290Z,8.48
2022-08-26T04:22:47.413Z,8.75
2022-08-26T04:25:16.723Z,7.95
2022-08-26T04:27:45.472Z,7.75
2022-08-26T04:30:17.711Z,7.97
2022-08-26T04:32:46.892Z,6.85
2022-08-26T04:35:15.686Z,7.07
2022-08-26T04:37:46.075Z,6.30
2022-08-26T04:40:15.025Z,6.32
2022-08-26T04:42:44.402Z,6.20
2022-08-26T04:45:14.098Z,6.65
2022-08-26T04:47:43.505Z,5.82
2022-08-26T04:50:12.764Z,5.90
2022-08-26T04:52:42.687Z,5.85
2022-08-26T04:55:11.672Z,6.03
2022-08-26T04:57:40.547Z,6.30
2022-08-26T05:00:12.778Z,6.45
2022-08-26T05:02:41.262Z,5.82
2022-08-26T05:05:11.486Z,5.53
2022-08-26T05:07:39.811Z,5.90
2022-08-26T05:10:08.832Z,5.63
2022-08-26T05:12:37.174Z,5.35
2022-08-26T05:15:06.130Z,5.47
2022-08-26T05:17:34.089Z,5.75
2022-08-26T05:20:01.717Z,5.15
2022-08-26T05:22:29.001Z,4.90
2022-08-26T05:24:56.686Z,5.35
2022-08-26T05:27:24.151Z,4.85
2022-08-26T05:29:54.625Z,4.85
2022-08-26T05:32:22.685Z,4.97
2022-08-26T05:34:55.393Z,5.10
2022-08-26T05:37:23.148Z,4.80
2022-08-26T05:39:51.532Z,5.13
2022-08-26T05:42:20.063Z,5.28
2022-08-26T05:44:54.000Z,5.18
2022-08-26T05:47:24.550Z,5.55
2022-08-26T05:49:52.462Z,6.60
2022-08-26T05:52:20.318Z,5.22
2022-08-26T05:54:48.532Z,5.30
2022-08-26T05:57:17.131Z,4.85
2022-08-26T05:59:46.266Z,5.33
2022-08-26T06:02:13.767Z,5.47
2022-08-26T06:04:42.067Z,6.13
2022-08-26T06:07:11.514Z,4.65
2022-08-26T06:09:39.604Z,6.33
2022-08-26T06:12:07.705Z,6.13
2022-08-26T06:14:36.130Z,7.72
2022-08-26T06:17:09.649Z,5.22
2022-08-26T06:19:38.152Z,4.88
2022-08-26T06:22:29.840Z,6.82
2022-08-26T06:25:16.278Z,4.95
2022-08-26T06:27:44.802Z,5.25
2022-08-26T06:30:13.423Z,5.15
2022-08-26T06:32:41.835Z,6.00
2022-08-26T06:35:12.284Z,5.63
2022-08-26T06:37:41.203Z,5.90
2022-08-26T06:40:09.898Z,5.53
2022-08-26T06:42:40.220Z,4.63
2022-08-26T06:45:08.885Z,5.05
2022-08-26T06:47:37.383Z,5.38
2022-08-26T06:50:06.006Z,5.53
2022-08-26T06:52:34.115Z,4.90
2022-08-26T06:55:03.291Z,5.18
2022-08-26T06:57:32.926Z,5.93
2022-08-26T07:00:04.010Z,4.70
2022-08-26T07:02:32.570Z,4.70
2022-08-26T07:05:00.242Z,5.10
2022-08-26T07:07:29.559Z,5.22
2022-08-26T07:09:58.437Z,4.70
2022-08-26T07:12:27.080Z,5.07
2022-08-26T07:14:55.737Z,4.80
2022-08-26T07:17:26.317Z,4.95
2022-08-26T07:19:54.548Z,5.28
2022-08-26T07:22:21.799Z,5.30
2022-08-26T07:24:49.465Z,5.75
2022-08-26T07:27:17.541Z,5.55
2022-08-26T07:29:45.296Z,5.35
2022-08-26T07:32:15.165Z,4.75
2022-08-26T07:34:43.384Z,5.05
2022-08-26T07:37:10.984Z,5.43
2022-08-26T07:39:38.702Z,5.35
2022-08-26T07:42:09.149Z,5.18
2022-08-26T07:44:37.988Z,6.38
2022-08-26T07:47:10.385Z,6.85
2022-08-26T07:49:56.037Z,5.55
2022-08-26T07:52:28.889Z,6.20
2022-08-26T07:54:58.155Z,5.00
2022-08-26T07:57:27.862Z,5.93
2022-08-26T08:02:25.185Z,4.72
2022-08-26T08:04:54.523Z,5.07
2022-08-26T08:07:44.979Z,4.70
2022-08-26T08:10:21.058Z,4.65
2022-08-26T08:12:50.537Z,4.65
2022-08-26T08:15:20.631Z,4.57
2022-08-26T08:17:50.495Z,4.35
2022-08-26T08:20:19.400Z,5.38
2022-08-26T08:22:46.900Z,5.60
2022-08-26T08:25:14.846Z,5.35
2022-08-26T08:27:45.208Z,7.45
2022-08-26T08:30:14.362Z,6.65
2022-08-26T08:32:43.722Z,4.85
2022-08-26T08:37:40.374Z,6.00
2022-08-26T08:40:09.810Z,6.55
2022-08-26T08:42:45.873Z,6.78
2022-08-26T08:45:30.464Z,6.00
2022-08-26T08:48:01.967Z,6.80
2022-08-26T08:50:35.182Z,6.35
2022-08-26T08:53:03.131Z,5.88
2022-08-26T08:55:39.784Z,5.47
2022-08-26T08:58:10.293Z,5.85
2022-08-26T09:00:49.986Z,6.43
2022-08-26T09:03:25.264Z,5.78
2022-08-26T09:05:54.631Z,5.30
2022-08-26T09:08:27.501Z,5.00
2022-08-26T09:10:57.943Z,4.70
2022-08-26T09:13:27.653Z,5.25
2022-08-26T09:15:58.081Z,4.47
2022-08-26T09:18:34.334Z,4.82
2022-08-26T09:21:04.849Z,4.65
2022-08-26T09:23:34.055Z,4.53
2022-08-26T09:26:13.413Z,4.45
2022-08-26T09:28:42.588Z,4.30
2022-08-26T09:31:13.668Z,4.63
2022-08-26T09:33:41.758Z,4.80
2022-08-26T09:36:14.604Z,3.90
2022-08-26T09:38:42.911Z,4.65
2022-08-26T09:41:22.069Z,4.82
2022-08-26T09:44:08.694Z,4.68
2022-08-26T09:46:52.305Z,4.68
2022-08-26T09:49:36.433Z,4.57
2022-08-26T09:52:14.478Z,4.57
2022-08-26T09:54:44.339Z,4.72
2022-08-26T09:57:16.962Z,5.28
2022-08-26T09:59:45.509Z,4.72
2022-08-26T10:02:17.454Z,5.03
2022-08-26T10:04:54.857Z,4.72
2022-08-26T10:07:44.064Z,4.50
2022-08-26T10:10:21.436Z,4.70
2022-08-26T10:13:11.927Z,4.93
2022-08-26T10:15:56.052Z,4.47
2022-08-26T10:18:34.085Z,5.10
2022-08-26T10:21:30.658Z,4.70
2022-08-26T10:24:01.945Z,4.63
2022-08-26T10:26:38.369Z,4.88
2022-08-26T10:29:23.365Z,4.85
2022-08-26T10:31:58.742Z,5.03
2022-08-26T10:34:31.414Z,5.03
2022-08-26T10:37:14.271Z,4.20
2022-08-26T10:39:59.033Z,4.78
2022-08-26T10:42:38.750Z,4.80
2022-08-26T10:45:14.880Z,4.68
2022-08-26T10:47:50.201Z,5.03
2022-08-26T10:50:18.964Z,4.65
2022-08-26T10:52:52.620Z,5.23
2022-08-26T10:55:34.967Z,5.20
2022-08-26T10:58:26.295Z,4.88
2022-08-26T11:01:23.975Z,4.50
2022-08-26T11:04:19.539Z,4.45
2022-08-26T11:07:09.839Z,4.20
2022-08-26T11:09:46.195Z,4.82
2022-08-26T11:12:35.633Z,4.72
2022-08-26T11:15:34.304Z,4.50
2022-08-26T11:18:07.828Z,4.47
2022-08-26T11:20:47.103Z,4.78
2022-08-26T11:23:22.351Z,4.83
2022-08-26T11:26:10.081Z,4.85
2022-08-26T11:28:46.197Z,4.45
2022-08-26T11:31:26.805Z,5.18
2022-08-26T11:33:59.470Z,5.03
2022-08-26T11:36:36.425Z,4.53
2022-08-26T11:39:30.424Z,5.00
2022-08-26T11:42:28.395Z,5.00
2022-08-26T11:44:58.189Z,5.07
2022-08-26T11:50:18.762Z,5.57
2022-08-26T11:53:04.340Z,4.82
2022-08-26T11:55:41.813Z,4.75
2022-08-26T11:58:12.916Z,4.82
2022-08-26T12:00:53.920Z,4.90
2022-08-26T12:03:29.108Z,5.15
2022-08-26T12:05:57.288Z,5.35
2022-08-26T12:08:28.142Z,5.25
2022-08-26T12:11:06.982Z,4.95
2022-08-26T12:13:37.282Z,4.85
2022-08-26T12:16:06.222Z,4.68
2022-08-26T12:18:38.342Z,5.03
2022-08-26T12:21:22.307Z,4.70
2022-08-26T12:24:00.831Z,5.55
2022-08-26T12:26:35.685Z,4.90
2022-08-26T12:29:27.112Z,4.97
2022-08-26T12:32:11.567Z,4.70
2022-08-26T12:34:41.007Z,5.10
2022-08-26T12:37:12.003Z,4.80
2022-08-26T12:39:42.330Z,5.47
2022-08-26T12:44:53.200Z,5.57
2022-08-26T12:47:42.377Z,4.80
2022-08-26T12:50:31.063Z,4.75
2022-08-26T12:53:01.003Z,4.88
2022-08-26T12:55:56.175Z,4.97
2022-08-26T12:58:33.049Z,4.93
2022-08-26T13:01:06.598Z,4.95
2022-08-26T13:03:34.167Z,5.18
2022-08-26T13:06:22.562Z,4.47
2022-08-26T13:09:09.246Z,4.32
2022-08-26T13:11:39.770Z,4.88
2022-08-26T13:14:12.911Z,4.50
2022-08-26T13:16:49.309Z,4.55
2022-08-26T13:19:22.777Z,4.78
2022-08-26T13:21:55.417Z,4.20
2022-08-26T13:24:28.665Z,4.68
2022-08-26T13:26:56.418Z,5.15
2022-08-26T13:29:23.915Z,4.88
2022-08-26T13:31:52.365Z,4.47
2022-08-26T13:34:21.596Z,4.53
2022-08-26T13:36:51.545Z,12.15
2022-08-26T13:39:18.982Z,15.13
2022-08-26T13:41:46.608Z,21.38
2022-08-26T13:44:14.260Z,36.65
2022-08-26T13:46:41.824Z,18.63
2022-08-26T13:49:10.082Z,11.30
2022-08-26T13:51:38.034Z,14.38
2022-08-26T13:54:05.854Z,7.72
2022-08-26T13:56:34.174Z,10.38
2022-08-26T13:59:02.179Z,8.25
2022-08-26T14:01:30.959Z,10.05
2022-08-26T14:03:58.485Z,8.90
2022-08-26T14:06:26.159Z,6.43
2022-08-26T14:08:53.491Z,8.77
2022-08-26T14:11:23.144Z,7.88
2022-08-26T14:13:52.431Z,6.65
2022-08-26T14:16:31.561Z,9.63
2022-08-26T14:19:03.714Z,6.13
2022-08-26T14:21:33.874Z,8.38
2022-08-26T14:24:01.357Z,7.80
2022-08-26T14:26:30.100Z,6.30
2022-08-26T14:28:59.729Z,5.23
2022-08-26T14:31:45.920Z,4.88
2022-08-26T14:34:14.268Z,4.65
2022-08-26T14:36:42.477Z,5.38
2022-08-26T14:39:12.514Z,4.85
2022-08-26T14:41:54.035Z,4.63
2022-08-26T14:44:27.719Z,4.63
2022-08-26T14:46:55.886Z,5.82
2022-08-26T14:49:27.335Z,4.68
2022-08-26T14:51:55.396Z,4.15
2022-08-26T14:54:22.636Z,5.10
2022-08-26T14:56:51.979Z,4.63
2022-08-26T14:59:21.856Z,4.85
2022-08-26T15:01:50.639Z,4.60
2022-08-26T15:04:19.578Z,5.03
2022-08-26T15:06:48.093Z,4.78
2022-08-26T15:09:16.751Z,4.68
2022-08-26T15:11:45.157Z,4.68
2022-08-26T15:14:19.333Z,5.28
2022-08-26T15:16:52.950Z,5.55
2022-08-26T15:19:21.551Z,4.13
2022-08-26T15:21:50.474Z,4.85
2022-08-26T15:24:20.806Z,4.88
2022-08-26T15:26:50.101Z,4.43
2022-08-26T15:29:19.097Z,4.50
2022-08-26T15:31:47.826Z,4.60
2022-08-26T15:34:17.328Z,4.78
2022-08-26T15:36:46.885Z,4.18
2022-08-26T15:39:16.626Z,4.28
2022-08-26T15:41:45.632Z,4.75
2022-08-26T15:44:17.790Z,4.45
2022-08-26T15:46:46.752Z,4.32
2022-08-26T15:49:18.442Z,3.78
2022-08-26T15:51:50.337Z,5.38
2022-08-26T15:54:21.275Z,4.07
2022-08-26T15:56:51.752Z,3.97
2022-08-26T15:59:21.719Z,4.13
2022-08-26T16:01:49.575Z,4.00
2022-08-26T16:04:18.727Z,3.90
2022-08-26T16:06:50.225Z,3.92
2022-08-26T16:09:18.395Z,3.50
2022-08-26T16:11:51.875Z,3.95
2022-08-26T16:14:20.584Z,4.15
2022-08-26T16:16:49.906Z,4.07
2022-08-26T16:19:18.620Z,4.72
2022-08-26T16:21:48.084Z,4.65
2022-08-26T16:24:16.914Z,4.50
2022-08-26T16:26:45.960Z,4.60
2022-08-26T16:29:15.703Z,5.43
2022-08-26T16:31:44.475Z,4.35
2022-08-26T16:34:13.075Z,4.32
2022-08-26T16:36:41.871Z,5.05
2022-08-26T16:39:10.600Z,4.30
2022-08-26T16:41:39.223Z,4.53
2022-08-26T16:44:08.996Z,4.43
2022-08-26T16:46:39.661Z,4.28
2022-08-26T16:49:08.995Z,4.63
2022-08-26T16:51:37.968Z,5.65
2022-08-26T16:54:08.254Z,5.15
2022-08-26T16:56:38.195Z,4.60
2022-08-26T16:59:07.746Z,4.85
2022-08-26T17:01:37.593Z,4.80
2022-08-26T17:04:06.856Z,4.30
2022-08-26T17:06:54.140Z,4.35
2022-08-26T17:09:22.170Z,5.03
2022-08-26T17:11:51.260Z,5.03
2022-08-26T17:14:20.324Z,5.80
2022-08-26T17:16:53.548Z,5.43
2022-08-26T17:19:22.728Z,5.63
2022-08-26T17:21:51.771Z,5.65
2022-08-26T17:24:20.280Z,5.65
2022-08-26T17:26:50.011Z,5.85
2022-08-26T17:29:24.324Z,6.22
2022-08-26T17:31:52.063Z,5.65
2022-08-26T17:34:20.895Z,6.00
2022-08-26T17:36:50.058Z,5.85
2022-08-26T17:39:18.937Z,6.90
2022-08-26T17:41:47.756Z,6.82
2022-08-26T17:44:16.601Z,7.35
2022-08-26T17:46:44.743Z,7.10
2022-08-26T17:49:12.372Z,7.15
2022-08-26T17:51:41.397Z,7.32
2022-08-26T17:54:09.132Z,6.70
2022-08-26T17:56:36.819Z,6.32
2022-08-26T17:59:07.591Z,6.80
2022-08-26T18:01:35.666Z,6.93
2022-08-26T18:04:05.053Z,6.72
2022-08-26T18:06:37.069Z,6.40
2022-08-26T18:09:25.549Z,7.93
2022-08-26T18:11:53.348Z,8.90
2022-08-26T18:14:22.932Z,7.53
2022-08-26T18:16:51.004Z,6.80
2022-08-26T18:19:18.773Z,7.38
2022-08-26T18:21:47.687Z,7.72
2022-08-26T18:24:16.546Z,8.07
2022-08-26T18:26:48.929Z,8.05
2022-08-26T18:29:18.739Z,9.35
2022-08-26T18:31:48.552Z,8.32
2022-08-26T18:34:17.160Z,7.65
2022-08-26T18:36:46.040Z,7.38
2022-08-26T18:39:15.867Z,8.07
2022-08-26T18:41:46.484Z,8.05
2022-08-26T18:44:16.460Z,9.05
2022-08-26T18:46:45.848Z,10.15
2022-08-26T18:49:15.666Z,9.07
2022-08-26T18:52:03.514Z,10.40
2022-08-26T18:54:32.637Z,8.90
2022-08-26T18:57:02.823Z,10.48
2022-08-26T18:59:31.463Z,11.27
2022-08-26T19:02:00.699Z,9.80
2022-08-26T19:04:29.638Z,10.05
2022-08-26T19:06:58.430Z,8.13
2022-08-26T19:09:28.126Z,7.25
2022-08-26T19:11:57.399Z,5.63
2022-08-26T19:14:27.521Z,5.45
2022-08-26T19:16:56.573Z,4.78
2022-08-26T19:19:25.372Z,5.10
2022-08-26T19:21:54.584Z,4.68
2022-08-26T19:24:27.351Z,5.10
2022-08-26T19:26:58.598Z,4.95
2022-08-26T19:29:28.530Z,4.55
2022-08-26T19:31:57.802Z,4.60
2022-08-26T19:34:26.498Z,4.93
2022-08-26T19:36:56.907Z,4.72
2022-08-26T19:39:26.055Z,4.70
2022-08-26T19:41:54.855Z,5.60
2022-08-26T19:44:41.926Z,6.72
2022-08-26T19:47:13.036Z,5.65
2022-08-26T19:49:41.031Z,8.02
2022-08-26T19:52:09.043Z,9.05
2022-08-26T19:54:36.771Z,9.63
2022-08-26T19:57:05.315Z,8.82
2022-08-26T19:59:36.160Z,8.88
2022-08-26T20:02:08.641Z,9.55
2022-08-26T20:04:39.243Z,9.35
2022-08-26T20:07:08.672Z,8.23
2022-08-26T20:09:36.675Z,7.20
2022-08-26T20:12:06.076Z,7.22
2022-08-26T20:14:34.449Z,7.00
2022-08-26T20:17:03.565Z,7.05
2022-08-26T20:19:51.076Z,6.57
2022-08-26T20:22:20.473Z,6.22
2022-08-26T20:24:48.545Z,6.05
2022-08-26T20:27:16.454Z,6.00
2022-08-26T20:29:44.191Z,5.53
2022-08-26T20:32:12.261Z,6.20
2022-08-26T20:34:40.205Z,6.40
2022-08-26T20:37:08.581Z,6.60
2022-08-26T20:39:36.583Z,6.07
2022-08-26T20:42:05.235Z,5.88
2022-08-26T20:44:35.228Z,6.93
2022-08-26T20:47:03.396Z,5.93
2022-08-26T20:49:33.183Z,7.45
2022-08-26T20:52:03.061Z,6.05
2022-08-26T20:54:31.192Z,6.50
2022-08-26T20:56:59.532Z,5.88
2022-08-26T20:59:27.430Z,6.13
2022-08-26T21:01:55.336Z,5.68
2022-08-26T21:04:24.417Z,6.80
2022-08-26T21:06:54.424Z,6.07
2022-08-26T21:09:23.526Z,6.28
2022-08-26T21:11:51.911Z,6.13
2022-08-26T21:14:20.681Z,6.90
2022-08-26T21:16:50.951Z,5.93
2022-08-26T21:19:19.424Z,6.28
2022-08-26T21:21:48.579Z,6.07
2022-08-26T21:24:36.272Z,5.93
2022-08-26T21:27:03.978Z,5.88
2022-08-26T21:29:32.832Z,6.18
2022-08-26T21:32:00.699Z,6.35
2022-08-26T21:34:28.553Z,6.40
2022-08-26T21:36:56.298Z,6.45
2022-08-26T21:39:24.136Z,6.55
2022-08-26T21:42:11.401Z,6.47
2022-08-26T21:44:39.207Z,6.65
2022-08-26T21:47:07.116Z,7.40
2022-08-26T21:49:34.789Z,7.68
2022-08-26T21:52:04.588Z,6.70
2022-08-26T21:54:32.673Z,6.28
2022-08-26T21:57:00.524Z,7.30
2022-08-26T21:59:28.375Z,6.55
2022-08-26T22:01:56.920Z,6.25
2022-08-26T22:04:25.479Z,6.93
2022-08-26T22:06:57.554Z,7.20
2022-08-26T22:09:26.293Z,6.28
2022-08-26T22:11:56.862Z,7.03
2022-08-26T22:14:30.501Z,6.30
2022-08-26T22:16:59.680Z,6.32
2022-08-26T22:19:27.489Z,6.68
2022-08-26T22:22:14.486Z,7.45
2022-08-26T22:24:43.373Z,6.50
2022-08-26T22:27:12.016Z,6.35
2022-08-26T22:29:40.041Z,6.57
2022-08-26T22:32:08.153Z,6.47
2022-08-26T22:34:35.788Z,6.78
2022-08-26T22:37:03.623Z,6.30
2022-08-26T22:39:31.516Z,6.20
2022-08-26T22:41:59.204Z,6.10
2022-08-26T22:44:26.895Z,6.80
2022-08-26T22:46:56.777Z,6.63
2022-08-26T22:49:24.989Z,6.07
2022-08-26T22:51:53.909Z,5.65
2022-08-26T22:54:23.512Z,6.00
2022-08-26T22:56:51.329Z,5.20
2022-08-26T22:59:20.276Z,5.82
2022-08-26T23:01:48.183Z,5.88
2022-08-26T23:04:16.077Z,6.13
2022-08-26T23:06:47.573Z,5.70
2022-08-26T23:09:18.254Z,6.55
2022-08-26T23:11:47.495Z,6.72
2022-08-26T23:14:16.440Z,6.05
2022-08-26T23:16:44.894Z,5.72
2022-08-26T23:19:13.609Z,5.55
2022-08-26T23:21:41.304Z,6.50
2022-08-26T23:24:09.761Z,7.07
2022-08-26T23:26:38.293Z,6.00
2022-08-26T23:29:06.873Z,6.57
2022-08-26T23:31:35.062Z,6.20
2022-08-26T23:34:21.570Z,6.00
2022-08-26T23:36:49.903Z,6.10
2022-08-26T23:39:17.666Z,5.97
2022-08-26T23:41:45.430Z,6.43
2022-08-26T23:44:13.451Z,7.07
2022-08-26T23:46:41.358Z,6.68
2022-08-26T23:49:09.578Z,7.43
2022-08-26T23:51:57.147Z,7.40
2022-08-26T23:54:24.949Z,7.30
2022-08-26T23:56:52.747Z,6.53
2022-08-26T23:59:20.757Z,6.78
